createdAt,value
2019-02-07T10:56:15.548Z,6.90
2019-02-07T11:01:57.470Z,6.10
2019-02-07T11:07:19.100Z,6.00
2019-02-07T11:12:48.516Z,6.50
2019-02-07T11:23:40.860Z,6.60
2019-02-07T11:34:20.494Z,6.80
2019-02-07T11:39:55.648Z,7.40
2019-02-07T11:45:18.315Z,7.50
2019-02-07T11:50:40.524Z,7.50
2019-02-07T11:56:00.952Z,7.30
2019-02-07T12:01:20.252Z,7.20
2019-02-07T12:06:52.851Z,7.20
2019-02-07T12:12:22.287Z,7.50
2019-02-07T12:18:04.083Z,7.80
2019-02-07T12:23:29.522Z,7.90
2019-02-07T12:28:51.535Z,9.10
2019-02-07T14:05:48.194Z,9.60
2019-02-07T14:11:11.906Z,10.00
2019-02-07T14:16:35.148Z,10.00
2019-02-07T14:32:34.916Z,9.80
2019-02-07T14:37:53.248Z,9.70
2019-02-07T14:43:13.193Z,9.50
2019-02-07T14:48:24.920Z,9.60
2019-02-07T14:53:29.338Z,9.50
2019-02-07T14:58:33.563Z,8.90
2019-02-07T15:03:37.968Z,8.60
2019-02-07T15:13:46.022Z,8.50
2019-02-07T15:18:50.399Z,8.10
2019-02-07T15:23:54.680Z,8.00
2019-02-07T15:28:59.437Z,8.00
2019-02-07T15:34:03.841Z,8.00
2019-02-07T15:39:11.613Z,8.00
2019-02-07T15:44:15.939Z,7.80
2019-02-07T15:49:20.221Z,7.80
2019-02-07T15:54:25.233Z,7.80
2019-02-07T15:59:44.036Z,7.60
2019-02-07T16:04:48.497Z,7.60
2019-02-07T16:09:52.785Z,7.50
2019-02-07T16:14:57.120Z,7.60
2019-02-07T16:20:01.358Z,7.50
2019-02-07T16:25:08.035Z,7.50
2019-02-07T16:30:14.327Z,7.50
2019-02-07T16:35:19.259Z,7.40
